sensor_id;sensor_type;location;lat;lon;timestamp;P1;durP1;ratioP1;P2;durP2;ratioP2
4646;SDS011;2336;47.822;7.564;2023-06-14T00:01:41;5.60;;;5.10;;
4646;SDS011;2336;47.822;7.564;2023-06-14T00:04:10;6.10;;;5.43;;
4646;SDS011;2336;47.822;7.564;2023-06-14T00:06:37;5.37;;;4.93;;
4646;SDS011;2336;47.822;7.564;2023-06-14T00:09:06;5.30;;;4.90;;
4646;SDS011;2336;47.822;7.564;2023-06-14T00:11:34;5.07;;;4.67;;
4646;SDS011;2336;47.822;7.564;2023-06-14T00:14:00;6.90;;;4.80;;
4646;SDS011;2336;47.822;7.564;2023-06-14T00:16:30;5.30;;;4.93;;
4646;SDS011;2336;47.822;7.564;2023-06-14T00:18:57;6.80;;;5.10;;
4646;SDS011;2336;47.822;7.564;2023-06-14T00:21:24;5.57;;;5.20;;
4646;SDS011;2336;47.822;7.564;2023-06-14T00:23:53;4.93;;;4.70;;
4646;SDS011;2336;47.822;7.564;2023-06-14T00:26:20;5.10;;;4.80;;
4646;SDS011;2336;47.822;7.564;2023-06-14T00:28:47;4.50;;;4.20;;
4646;SDS011;2336;47.822;7.564;2023-06-14T00:31:13;5.00;;;4.70;;
4646;SDS011;2336;47.822;7.564;2023-06-14T00:33:41;5.40;;;4.90;;
4646;SDS011;2336;47.822;7.564;2023-06-14T00:36:08;5.20;;;4.90;;
4646;SDS011;2336;47.822;7.564;2023-06-14T00:38:35;5.57;;;5.17;;
4646;SDS011;2336;47.822;7.564;2023-06-14T00:41:01;5.97;;;5.57;;
4646;SDS011;2336;47.822;7.564;2023-06-14T00:43:28;5.00;;;4.80;;
4646;SDS011;2336;47.822;7.564;2023-06-14T00:45:55;6.50;;;5.30;;
4646;SDS011;2336;47.822;7.564;2023-06-14T00:48:22;5.20;;;4.80;;
4646;SDS011;2336;47.822;7.564;2023-06-14T00:50:50;6.50;;;4.70;;
4646;SDS011;2336;47.822;7.564;2023-06-14T00:53:18;5.40;;;5.00;;
4646;SDS011;2336;47.822;7.564;2023-06-14T00:55:48;6.20;;;5.70;;
4646;SDS011;2336;47.822;7.564;2023-06-14T00:58:14;6.07;;;4.97;;
4646;SDS011;2336;47.822;7.564;2023-06-14T01:00:41;5.20;;;4.90;;
4646;SDS011;2336;47.822;7.564;2023-06-14T01:03:09;5.77;;;5.37;;
4646;SDS011;2336;47.822;7.564;2023-06-14T01:05:39;5.30;;;4.90;;
4646;SDS011;2336;47.822;7.564;2023-06-14T01:08:11;5.60;;;5.10;;
4646;SDS011;2336;47.822;7.564;2023-06-14T01:10:51;6.37;;;5.13;;
4646;SDS011;2336;47.822;7.564;2023-06-14T01:13:23;6.07;;;5.57;;
4646;SDS011;2336;47.822;7.564;2023-06-14T01:15:54;5.97;;;5.03;;
4646;SDS011;2336;47.822;7.564;2023-06-14T01:18:21;4.60;;;4.37;;
4646;SDS011;2336;47.822;7.564;2023-06-14T01:20:51;6.30;;;4.70;;
4646;SDS011;2336;47.822;7.564;2023-06-14T01:23:21;9.30;;;5.40;;
4646;SDS011;2336;47.822;7.564;2023-06-14T01:25:49;5.83;;;5.43;;
4646;SDS011;2336;47.822;7.564;2023-06-14T01:28:17;5.43;;;5.13;;
4646;SDS011;2336;47.822;7.564;2023-06-14T01:30:46;5.70;;;5.30;;
4646;SDS011;2336;47.822;7.564;2023-06-14T01:33:15;8.10;;;5.30;;
4646;SDS011;2336;47.822;7.564;2023-06-14T01:35:44;5.70;;;5.30;;
4646;SDS011;2336;47.822;7.564;2023-06-14T01:38:14;5.87;;;5.47;;
4646;SDS011;2336;47.822;7.564;2023-06-14T01:40:44;5.53;;;5.17;;
4646;SDS011;2336;47.822;7.564;2023-06-14T01:43:13;6.37;;;5.77;;
4646;SDS011;2336;47.822;7.564;2023-06-14T01:45:41;8.40;;;6.07;;
4646;SDS011;2336;47.822;7.564;2023-06-14T01:48:09;8.63;;;6.43;;
4646;SDS011;2336;47.822;7.564;2023-06-14T01:50:35;6.20;;;5.70;;
4646;SDS011;2336;47.822;7.564;2023-06-14T01:53:03;6.63;;;6.03;;
4646;SDS011;2336;47.822;7.564;2023-06-14T01:55:33;6.10;;;5.70;;
4646;SDS011;2336;47.822;7.564;2023-06-14T01:58:03;5.20;;;4.90;;
4646;SDS011;2336;47.822;7.564;2023-06-14T02:00:30;5.50;;;5.20;;
4646;SDS011;2336;47.822;7.564;2023-06-14T02:02:57;5.50;;;5.10;;
4646;SDS011;2336;47.822;7.564;2023-06-14T02:05:24;5.83;;;5.40;;
4646;SDS011;2336;47.822;7.564;2023-06-14T02:07:51;5.80;;;5.40;;
4646;SDS011;2336;47.822;7.564;2023-06-14T02:10:18;5.37;;;5.07;;
4646;SDS011;2336;47.822;7.564;2023-06-14T02:12:45;5.60;;;5.20;;
4646;SDS011;2336;47.822;7.564;2023-06-14T02:15:13;5.53;;;5.13;;
4646;SDS011;2336;47.822;7.564;2023-06-14T02:17:41;5.50;;;5.20;;
4646;SDS011;2336;47.822;7.564;2023-06-14T02:20:08;5.47;;;4.97;;
4646;SDS011;2336;47.822;7.564;2023-06-14T02:22:36;6.60;;;6.10;;
4646;SDS011;2336;47.822;7.564;2023-06-14T02:25:02;6.03;;;5.50;;
4646;SDS011;2336;47.822;7.564;2023-06-14T02:27:30;5.80;;;5.40;;
4646;SDS011;2336;47.822;7.564;2023-06-14T02:29:57;5.70;;;5.20;;
4646;SDS011;2336;47.822;7.564;2023-06-14T02:32:25;5.50;;;5.10;;
4646;SDS011;2336;47.822;7.564;2023-06-14T02:34:52;5.23;;;4.90;;
4646;SDS011;2336;47.822;7.564;2023-06-14T02:37:19;6.43;;;5.73;;
4646;SDS011;2336;47.822;7.564;2023-06-14T02:39:46;6.20;;;5.70;;
4646;SDS011;2336;47.822;7.564;2023-06-14T02:42:13;6.23;;;5.60;;
4646;SDS011;2336;47.822;7.564;2023-06-14T02:44:40;5.90;;;5.50;;
4646;SDS011;2336;47.822;7.564;2023-06-14T02:47:06;6.23;;;5.67;;
4646;SDS011;2336;47.822;7.564;2023-06-14T02:49:35;8.67;;;5.67;;
4646;SDS011;2336;47.822;7.564;2023-06-14T02:52:02;5.70;;;5.30;;
4646;SDS011;2336;47.822;7.564;2023-06-14T02:54:28;6.57;;;6.07;;
4646;SDS011;2336;47.822;7.564;2023-06-14T02:56:55;6.57;;;5.17;;
4646;SDS011;2336;47.822;7.564;2023-06-14T02:59:22;6.03;;;5.43;;
4646;SDS011;2336;47.822;7.564;2023-06-14T03:01:50;4.90;;;4.53;;
4646;SDS011;2336;47.822;7.564;2023-06-14T03:04:16;5.43;;;5.10;;
4646;SDS011;2336;47.822;7.564;2023-06-14T03:06:44;6.70;;;6.07;;
4646;SDS011;2336;47.822;7.564;2023-06-14T03:09:15;6.20;;;5.80;;
4646;SDS011;2336;47.822;7.564;2023-06-14T03:11:42;5.93;;;5.50;;
4646;SDS011;2336;47.822;7.564;2023-06-14T03:14:09;6.10;;;5.60;;
4646;SDS011;2336;47.822;7.564;2023-06-14T03:16:36;6.17;;;5.50;;
4646;SDS011;2336;47.822;7.564;2023-06-14T03:19:03;6.97;;;6.27;;
4646;SDS011;2336;47.822;7.564;2023-06-14T03:21:29;5.97;;;5.50;;
4646;SDS011;2336;47.822;7.564;2023-06-14T03:23:58;8.10;;;6.20;;
4646;SDS011;2336;47.822;7.564;2023-06-14T03:26:25;6.33;;;5.83;;
4646;SDS011;2336;47.822;7.564;2023-06-14T03:28:52;6.07;;;5.57;;
4646;SDS011;2336;47.822;7.564;2023-06-14T03:31:19;8.53;;;5.80;;
4646;SDS011;2336;47.822;7.564;2023-06-14T03:33:47;6.43;;;5.93;;
4646;SDS011;2336;47.822;7.564;2023-06-14T03:36:13;14.80;;;6.00;;
4646;SDS011;2336;47.822;7.564;2023-06-14T03:38:40;7.30;;;6.57;;
4646;SDS011;2336;47.822;7.564;2023-06-14T03:41:08;9.63;;;5.87;;
4646;SDS011;2336;47.822;7.564;2023-06-14T03:43:35;6.50;;;5.90;;
4646;SDS011;2336;47.822;7.564;2023-06-14T03:46:01;6.87;;;5.33;;
4646;SDS011;2336;47.822;7.564;2023-06-14T03:48:28;6.77;;;6.17;;
4646;SDS011;2336;47.822;7.564;2023-06-14T03:50:55;10.47;;;6.07;;
4646;SDS011;2336;47.822;7.564;2023-06-14T03:53:22;6.03;;;5.40;;
4646;SDS011;2336;47.822;7.564;2023-06-14T03:55:49;5.83;;;5.33;;
4646;SDS011;2336;47.822;7.564;2023-06-14T03:58:18;6.13;;;5.63;;
4646;SDS011;2336;47.822;7.564;2023-06-14T04:00:45;6.17;;;5.30;;
4646;SDS011;2336;47.822;7.564;2023-06-14T04:03:12;6.60;;;6.00;;
4646;SDS011;2336;47.822;7.564;2023-06-14T04:05:40;6.27;;;5.67;;
4646;SDS011;2336;47.822;7.564;2023-06-14T04:08:07;11.43;;;5.40;;
4646;SDS011;2336;47.822;7.564;2023-06-14T04:10:34;5.80;;;5.50;;
4646;SDS011;2336;47.822;7.564;2023-06-14T04:13:01;6.40;;;5.90;;
4646;SDS011;2336;47.822;7.564;2023-06-14T04:15:29;7.43;;;5.47;;
4646;SDS011;2336;47.822;7.564;2023-06-14T04:17:56;6.20;;;5.70;;
4646;SDS011;2336;47.822;7.564;2023-06-14T04:20:23;8.30;;;5.57;;
4646;SDS011;2336;47.822;7.564;2023-06-14T04:22:50;6.80;;;6.20;;
4646;SDS011;2336;47.822;7.564;2023-06-14T04:25:17;7.33;;;6.40;;
4646;SDS011;2336;47.822;7.564;2023-06-14T04:27:45;5.67;;;5.07;;
4646;SDS011;2336;47.822;7.564;2023-06-14T04:30:12;6.30;;;5.80;;
4646;SDS011;2336;47.822;7.564;2023-06-14T04:32:40;10.13;;;6.30;;
4646;SDS011;2336;47.822;7.564;2023-06-14T04:35:08;12.53;;;6.07;;
4646;SDS011;2336;47.822;7.564;2023-06-14T04:37:35;6.90;;;6.30;;
4646;SDS011;2336;47.822;7.564;2023-06-14T04:40:05;6.67;;;6.07;;
4646;SDS011;2336;47.822;7.564;2023-06-14T04:42:33;5.80;;;5.30;;
4646;SDS011;2336;47.822;7.564;2023-06-14T04:45:02;7.33;;;6.70;;
4646;SDS011;2336;47.822;7.564;2023-06-14T04:47:29;7.47;;;6.77;;
4646;SDS011;2336;47.822;7.564;2023-06-14T04:49:58;9.00;;;6.13;;
4646;SDS011;2336;47.822;7.564;2023-06-14T04:52:28;7.80;;;6.70;;
4646;SDS011;2336;47.822;7.564;2023-06-14T04:54:55;8.70;;;6.93;;
4646;SDS011;2336;47.822;7.564;2023-06-14T04:57:22;9.27;;;7.70;;
4646;SDS011;2336;47.822;7.564;2023-06-14T04:59:50;7.20;;;6.70;;
4646;SDS011;2336;47.822;7.564;2023-06-14T05:02:19;6.77;;;6.27;;
4646;SDS011;2336;47.822;7.564;2023-06-14T05:04:47;8.00;;;6.93;;
4646;SDS011;2336;47.822;7.564;2023-06-14T05:07:15;6.73;;;6.27;;
4646;SDS011;2336;47.822;7.564;2023-06-14T05:09:41;8.13;;;7.23;;
4646;SDS011;2336;47.822;7.564;2023-06-14T05:12:08;7.87;;;7.10;;
4646;SDS011;2336;47.822;7.564;2023-06-14T05:14:35;10.00;;;7.70;;
4646;SDS011;2336;47.822;7.564;2023-06-14T05:17:02;9.67;;;8.67;;
4646;SDS011;2336;47.822;7.564;2023-06-14T05:19:29;9.80;;;8.10;;
4646;SDS011;2336;47.822;7.564;2023-06-14T05:21:55;6.80;;;6.40;;
4646;SDS011;2336;47.822;7.564;2023-06-14T05:24:24;9.17;;;8.00;;
4646;SDS011;2336;47.822;7.564;2023-06-14T05:26:51;8.33;;;7.53;;
4646;SDS011;2336;47.822;7.564;2023-06-14T05:29:17;7.20;;;6.70;;
4646;SDS011;2336;47.822;7.564;2023-06-14T05:31:44;8.20;;;7.50;;
4646;SDS011;2336;47.822;7.564;2023-06-14T05:34:11;7.30;;;6.60;;
4646;SDS011;2336;47.822;7.564;2023-06-14T05:36:37;12.73;;;7.30;;
4646;SDS011;2336;47.822;7.564;2023-06-14T05:39:04;7.10;;;6.60;;
4646;SDS011;2336;47.822;7.564;2023-06-14T05:41:33;7.00;;;6.40;;
4646;SDS011;2336;47.822;7.564;2023-06-14T05:44:00;8.33;;;7.63;;
4646;SDS011;2336;47.822;7.564;2023-06-14T05:46:27;7.40;;;6.73;;
4646;SDS011;2336;47.822;7.564;2023-06-14T05:48:54;7.33;;;6.57;;
4646;SDS011;2336;47.822;7.564;2023-06-14T05:51:21;7.50;;;6.80;;
4646;SDS011;2336;47.822;7.564;2023-06-14T05:53:50;6.40;;;5.90;;
4646;SDS011;2336;47.822;7.564;2023-06-14T05:56:17;6.10;;;5.70;;
4646;SDS011;2336;47.822;7.564;2023-06-14T05:58:45;6.53;;;6.03;;
4646;SDS011;2336;47.822;7.564;2023-06-14T06:01:13;6.57;;;5.97;;
4646;SDS011;2336;47.822;7.564;2023-06-14T06:03:40;6.20;;;5.80;;
4646;SDS011;2336;47.822;7.564;2023-06-14T06:06:10;6.00;;;5.60;;
4646;SDS011;2336;47.822;7.564;2023-06-14T06:08:37;10.80;;;6.20;;
4646;SDS011;2336;47.822;7.564;2023-06-14T06:11:04;6.50;;;5.90;;
4646;SDS011;2336;47.822;7.564;2023-06-14T06:13:31;6.67;;;6.17;;
4646;SDS011;2336;47.822;7.564;2023-06-14T06:15:59;5.67;;;5.27;;
4646;SDS011;2336;47.822;7.564;2023-06-14T06:18:25;5.33;;;4.73;;
4646;SDS011;2336;47.822;7.564;2023-06-14T06:20:52;6.20;;;5.80;;
4646;SDS011;2336;47.822;7.564;2023-06-14T06:23:19;6.57;;;5.97;;
4646;SDS011;2336;47.822;7.564;2023-06-14T06:25:45;5.80;;;5.03;;
4646;SDS011;2336;47.822;7.564;2023-06-14T06:28:12;5.47;;;5.07;;
4646;SDS011;2336;47.822;7.564;2023-06-14T06:30:39;6.90;;;6.10;;
4646;SDS011;2336;47.822;7.564;2023-06-14T06:33:07;6.37;;;5.80;;
4646;SDS011;2336;47.822;7.564;2023-06-14T06:35:33;7.50;;;5.33;;
4646;SDS011;2336;47.822;7.564;2023-06-14T06:38:00;5.73;;;5.10;;
4646;SDS011;2336;47.822;7.564;2023-06-14T06:40:27;5.63;;;5.30;;
4646;SDS011;2336;47.822;7.564;2023-06-14T06:42:53;6.00;;;5.50;;
4646;SDS011;2336;47.822;7.564;2023-06-14T06:45:20;5.80;;;4.97;;
4646;SDS011;2336;47.822;7.564;2023-06-14T06:47:48;5.17;;;4.83;;
4646;SDS011;2336;47.822;7.564;2023-06-14T06:50:17;5.20;;;4.90;;
4646;SDS011;2336;47.822;7.564;2023-06-14T06:52:44;6.40;;;5.40;;
4646;SDS011;2336;47.822;7.564;2023-06-14T06:55:11;9.20;;;5.80;;
4646;SDS011;2336;47.822;7.564;2023-06-14T06:57:38;10.00;;;5.40;;
4646;SDS011;2336;47.822;7.564;2023-06-14T07:00:05;6.00;;;5.40;;
4646;SDS011;2336;47.822;7.564;2023-06-14T07:02:34;8.40;;;5.70;;
4646;SDS011;2336;47.822;7.564;2023-06-14T07:05:01;5.70;;;5.40;;
4646;SDS011;2336;47.822;7.564;2023-06-14T07:07:29;6.07;;;5.53;;
4646;SDS011;2336;47.822;7.564;2023-06-14T07:09:56;5.17;;;4.57;;
4646;SDS011;2336;47.822;7.564;2023-06-14T07:12:23;7.10;;;4.97;;
4646;SDS011;2336;47.822;7.564;2023-06-14T07:14:50;6.03;;;4.67;;
4646;SDS011;2336;47.822;7.564;2023-06-14T07:17:17;5.13;;;4.70;;
4646;SDS011;2336;47.822;7.564;2023-06-14T07:19:43;5.27;;;4.80;;
4646;SDS011;2336;47.822;7.564;2023-06-14T07:22:10;5.57;;;5.17;;
4646;SDS011;2336;47.822;7.564;2023-06-14T07:24:39;5.70;;;5.30;;
4646;SDS011;2336;47.822;7.564;2023-06-14T07:27:07;5.80;;;5.30;;
4646;SDS011;2336;47.822;7.564;2023-06-14T07:29:33;7.13;;;4.37;;
4646;SDS011;2336;47.822;7.564;2023-06-14T07:32:00;5.70;;;5.20;;
4646;SDS011;2336;47.822;7.564;2023-06-14T07:34:27;5.50;;;5.00;;
4646;SDS011;2336;47.822;7.564;2023-06-14T07:36:53;6.70;;;4.77;;
4646;SDS011;2336;47.822;7.564;2023-06-14T07:39:20;11.30;;;5.57;;
4646;SDS011;2336;47.822;7.564;2023-06-14T07:41:48;8.50;;;4.83;;
4646;SDS011;2336;47.822;7.564;2023-06-14T07:44:15;4.83;;;4.43;;
4646;SDS011;2336;47.822;7.564;2023-06-14T07:46:42;5.57;;;5.13;;
4646;SDS011;2336;47.822;7.564;2023-06-14T07:49:11;4.60;;;4.23;;
4646;SDS011;2336;47.822;7.564;2023-06-14T07:51:38;6.53;;;5.10;;
4646;SDS011;2336;47.822;7.564;2023-06-14T07:54:05;5.30;;;4.80;;
4646;SDS011;2336;47.822;7.564;2023-06-14T07:56:32;5.00;;;4.60;;
4646;SDS011;2336;47.822;7.564;2023-06-14T07:59:00;5.10;;;4.70;;
4646;SDS011;2336;47.822;7.564;2023-06-14T08:01:27;7.73;;;4.73;;
4646;SDS011;2336;47.822;7.564;2023-06-14T08:03:54;5.30;;;4.80;;
4646;SDS011;2336;47.822;7.564;2023-06-14T08:06:20;5.60;;;5.10;;
4646;SDS011;2336;47.822;7.564;2023-06-14T08:08:47;4.90;;;4.60;;
4646;SDS011;2336;47.822;7.564;2023-06-14T08:11:14;5.37;;;4.97;;
4646;SDS011;2336;47.822;7.564;2023-06-14T08:13:41;7.07;;;4.90;;
4646;SDS011;2336;47.822;7.564;2023-06-14T08:16:09;4.97;;;4.77;;
4646;SDS011;2336;47.822;7.564;2023-06-14T08:18:35;5.00;;;4.53;;
4646;SDS011;2336;47.822;7.564;2023-06-14T08:21:02;5.73;;;5.20;;
4646;SDS011;2336;47.822;7.564;2023-06-14T08:23:29;5.23;;;4.73;;
4646;SDS011;2336;47.822;7.564;2023-06-14T08:25:56;8.00;;;4.90;;
4646;SDS011;2336;47.822;7.564;2023-06-14T08:28:23;5.40;;;4.90;;
4646;SDS011;2336;47.822;7.564;2023-06-14T08:30:50;7.80;;;5.23;;
4646;SDS011;2336;47.822;7.564;2023-06-14T08:33:18;5.80;;;4.87;;
4646;SDS011;2336;47.822;7.564;2023-06-14T08:35:45;6.13;;;5.27;;
4646;SDS011;2336;47.822;7.564;2023-06-14T08:38:12;5.40;;;5.00;;
4646;SDS011;2336;47.822;7.564;2023-06-14T08:40:38;5.57;;;4.80;;
4646;SDS011;2336;47.822;7.564;2023-06-14T08:43:07;8.60;;;5.23;;
4646;SDS011;2336;47.822;7.564;2023-06-14T08:45:34;5.83;;;5.33;;
4646;SDS011;2336;47.822;7.564;2023-06-14T08:48:01;4.93;;;4.73;;
4646;SDS011;2336;47.822;7.564;2023-06-14T08:50:29;6.53;;;4.80;;
4646;SDS011;2336;47.822;7.564;2023-06-14T08:52:59;8.33;;;4.53;;
4646;SDS011;2336;47.822;7.564;2023-06-14T08:55:27;5.90;;;4.40;;
4646;SDS011;2336;47.822;7.564;2023-06-14T08:57:55;7.13;;;5.00;;
4646;SDS011;2336;47.822;7.564;2023-06-14T09:00:24;5.23;;;4.40;;
4646;SDS011;2336;47.822;7.564;2023-06-14T09:02:52;5.67;;;4.70;;
4646;SDS011;2336;47.822;7.564;2023-06-14T09:05:22;6.03;;;4.80;;
4646;SDS011;2336;47.822;7.564;2023-06-14T09:07:52;5.00;;;4.70;;
4646;SDS011;2336;47.822;7.564;2023-06-14T09:10:20;4.87;;;4.23;;
4646;SDS011;2336;47.822;7.564;2023-06-14T09:12:47;5.20;;;4.70;;
4646;SDS011;2336;47.822;7.564;2023-06-14T09:15:14;5.10;;;4.60;;
4646;SDS011;2336;47.822;7.564;2023-06-14T09:17:42;4.70;;;4.40;;
4646;SDS011;2336;47.822;7.564;2023-06-14T09:20:09;5.93;;;4.53;;
4646;SDS011;2336;47.822;7.564;2023-06-14T09:22:38;4.87;;;4.40;;
4646;SDS011;2336;47.822;7.564;2023-06-14T09:25:08;5.83;;;5.33;;
4646;SDS011;2336;47.822;7.564;2023-06-14T09:27:36;7.70;;;4.90;;
4646;SDS011;2336;47.822;7.564;2023-06-14T09:30:05;5.80;;;5.30;;
4646;SDS011;2336;47.822;7.564;2023-06-14T09:32:36;6.40;;;4.37;;
4646;SDS011;2336;47.822;7.564;2023-06-14T09:35:04;5.13;;;4.63;;
4646;SDS011;2336;47.822;7.564;2023-06-14T09:37:32;5.27;;;4.77;;
4646;SDS011;2336;47.822;7.564;2023-06-14T09:39:59;11.10;;;5.60;;
4646;SDS011;2336;47.822;7.564;2023-06-14T09:42:27;4.57;;;4.30;;
4646;SDS011;2336;47.822;7.564;2023-06-14T09:44:55;7.90;;;4.37;;
4646;SDS011;2336;47.822;7.564;2023-06-14T09:47:22;10.10;;;4.80;;
4646;SDS011;2336;47.822;7.564;2023-06-14T09:49:50;5.10;;;4.80;;
4646;SDS011;2336;47.822;7.564;2023-06-14T09:52:19;5.90;;;5.30;;
4646;SDS011;2336;47.822;7.564;2023-06-14T09:54:47;5.40;;;5.00;;
4646;SDS011;2336;47.822;7.564;2023-06-14T09:57:16;5.03;;;4.63;;
4646;SDS011;2336;47.822;7.564;2023-06-14T09:59:48;4.67;;;4.37;;
4646;SDS011;2336;47.822;7.564;2023-06-14T10:02:19;4.83;;;4.50;;
4646;SDS011;2336;47.822;7.564;2023-06-14T10:04:53;6.67;;;4.80;;
4646;SDS011;2336;47.822;7.564;2023-06-14T10:07:26;11.13;;;5.57;;
4646;SDS011;2336;47.822;7.564;2023-06-14T10:09:56;5.97;;;4.60;;
4646;SDS011;2336;47.822;7.564;2023-06-14T10:12:23;7.43;;;5.17;;
4646;SDS011;2336;47.822;7.564;2023-06-14T10:14:51;4.97;;;4.47;;
4646;SDS011;2336;47.822;7.564;2023-06-14T10:17:21;4.53;;;4.33;;
4646;SDS011;2336;47.822;7.564;2023-06-14T10:19:54;4.87;;;4.00;;
4646;SDS011;2336;47.822;7.564;2023-06-14T10:22:26;3.73;;;3.63;;
4646;SDS011;2336;47.822;7.564;2023-06-14T10:24:58;5.17;;;4.67;;
4646;SDS011;2336;47.822;7.564;2023-06-14T10:27:26;4.40;;;4.10;;
4646;SDS011;2336;47.822;7.564;2023-06-14T10:30:07;5.20;;;4.80;;
4646;SDS011;2336;47.822;7.564;2023-06-14T10:32:35;4.93;;;4.43;;
4646;SDS011;2336;47.822;7.564;2023-06-14T10:35:22;4.47;;;4.27;;
4646;SDS011;2336;47.822;7.564;2023-06-14T10:37:48;6.33;;;3.97;;
4646;SDS011;2336;47.822;7.564;2023-06-14T10:40:28;4.40;;;4.10;;
4646;SDS011;2336;47.822;7.564;2023-06-14T10:42:56;6.63;;;4.37;;
4646;SDS011;2336;47.822;7.564;2023-06-14T10:45:24;4.57;;;4.27;;
4646;SDS011;2336;47.822;7.564;2023-06-14T10:47:51;7.43;;;4.10;;
4646;SDS011;2336;47.822;7.564;2023-06-14T10:50:22;5.40;;;4.90;;
4646;SDS011;2336;47.822;7.564;2023-06-14T10:52:54;4.20;;;3.80;;
4646;SDS011;2336;47.822;7.564;2023-06-14T10:55:21;4.63;;;4.20;;
4646;SDS011;2336;47.822;7.564;2023-06-14T10:57:49;4.20;;;3.83;;
4646;SDS011;2336;47.822;7.564;2023-06-14T11:00:18;5.33;;;4.40;;
4646;SDS011;2336;47.822;7.564;2023-06-14T11:05:58;4.73;;;4.43;;
4646;SDS011;2336;47.822;7.564;2023-06-14T11:08:37;8.00;;;5.00;;
4646;SDS011;2336;47.822;7.564;2023-06-14T11:11:13;6.70;;;4.53;;
4646;SDS011;2336;47.822;7.564;2023-06-14T11:13:41;4.90;;;4.40;;
4646;SDS011;2336;47.822;7.564;2023-06-14T11:16:10;5.70;;;5.00;;
4646;SDS011;2336;47.822;7.564;2023-06-14T11:18:38;4.73;;;4.20;;
4646;SDS011;2336;47.822;7.564;2023-06-14T11:21:06;4.97;;;4.67;;
4646;SDS011;2336;47.822;7.564;2023-06-14T11:23:34;6.00;;;4.27;;
4646;SDS011;2336;47.822;7.564;2023-06-14T11:26:01;5.30;;;4.80;;
4646;SDS011;2336;47.822;7.564;2023-06-14T11:28:38;15.60;;;5.13;;
4646;SDS011;2336;47.822;7.564;2023-06-14T11:31:07;6.97;;;4.47;;
4646;SDS011;2336;47.822;7.564;2023-06-14T11:33:35;5.67;;;4.70;;
4646;SDS011;2336;47.822;7.564;2023-06-14T11:36:02;6.23;;;4.30;;
4646;SDS011;2336;47.822;7.564;2023-06-14T11:38:36;5.30;;;3.70;;
4646;SDS011;2336;47.822;7.564;2023-06-14T11:41:03;5.47;;;4.20;;
4646;SDS011;2336;47.822;7.564;2023-06-14T11:43:30;5.07;;;4.60;;
4646;SDS011;2336;47.822;7.564;2023-06-14T11:45:59;7.10;;;4.50;;
4646;SDS011;2336;47.822;7.564;2023-06-14T11:48:35;5.87;;;4.37;;
4646;SDS011;2336;47.822;7.564;2023-06-14T11:51:02;8.10;;;4.50;;
4646;SDS011;2336;47.822;7.564;2023-06-14T11:53:29;5.23;;;4.80;;
4646;SDS011;2336;47.822;7.564;2023-06-14T11:55:58;5.30;;;4.50;;
4646;SDS011;2336;47.822;7.564;2023-06-14T11:58:25;8.13;;;4.17;;
4646;SDS011;2336;47.822;7.564;2023-06-14T12:00:53;16.23;;;4.50;;
4646;SDS011;2336;47.822;7.564;2023-06-14T12:03:22;6.93;;;4.20;;
4646;SDS011;2336;47.822;7.564;2023-06-14T12:05:50;6.93;;;4.67;;
4646;SDS011;2336;47.822;7.564;2023-06-14T12:08:31;4.60;;;4.30;;
4646;SDS011;2336;47.822;7.564;2023-06-14T12:11:05;4.37;;;3.97;;
4646;SDS011;2336;47.822;7.564;2023-06-14T12:13:33;5.00;;;4.60;;
4646;SDS011;2336;47.822;7.564;2023-06-14T12:16:01;8.13;;;4.10;;
4646;SDS011;2336;47.822;7.564;2023-06-14T12:18:31;6.63;;;4.07;;
4646;SDS011;2336;47.822;7.564;2023-06-14T12:21:00;6.80;;;4.33;;
4646;SDS011;2336;47.822;7.564;2023-06-14T12:23:38;4.73;;;4.30;;
4646;SDS011;2336;47.822;7.564;2023-06-14T12:26:07;6.47;;;3.90;;
4646;SDS011;2336;47.822;7.564;2023-06-14T12:28:34;4.33;;;4.13;;
4646;SDS011;2336;47.822;7.564;2023-06-14T12:31:00;4.70;;;4.50;;
4646;SDS011;2336;47.822;7.564;2023-06-14T12:33:28;4.50;;;4.20;;
4646;SDS011;2336;47.822;7.564;2023-06-14T12:35:55;4.83;;;4.30;;
4646;SDS011;2336;47.822;7.564;2023-06-14T12:38:22;4.63;;;4.23;;
4646;SDS011;2336;47.822;7.564;2023-06-14T12:40:49;5.07;;;4.77;;
4646;SDS011;2336;47.822;7.564;2023-06-14T12:43:17;6.30;;;4.47;;
4646;SDS011;2336;47.822;7.564;2023-06-14T12:45:44;5.10;;;3.97;;
4646;SDS011;2336;47.822;7.564;2023-06-14T12:48:11;5.53;;;4.20;;
4646;SDS011;2336;47.822;7.564;2023-06-14T12:50:37;6.60;;;4.37;;
4646;SDS011;2336;47.822;7.564;2023-06-14T12:53:04;5.10;;;4.70;;
4646;SDS011;2336;47.822;7.564;2023-06-14T12:55:31;4.40;;;4.10;;
4646;SDS011;2336;47.822;7.564;2023-06-14T12:57:58;4.10;;;3.90;;
4646;SDS011;2336;47.822;7.564;2023-06-14T13:00:26;5.77;;;3.90;;
4646;SDS011;2336;47.822;7.564;2023-06-14T13:02:54;4.77;;;4.30;;
4646;SDS011;2336;47.822;7.564;2023-06-14T13:05:21;4.47;;;4.20;;
4646;SDS011;2336;47.822;7.564;2023-06-14T13:07:48;4.40;;;4.00;;
4646;SDS011;2336;47.822;7.564;2023-06-14T13:10:15;6.03;;;4.30;;
4646;SDS011;2336;47.822;7.564;2023-06-14T13:12:42;4.37;;;4.07;;
4646;SDS011;2336;47.822;7.564;2023-06-14T13:15:10;4.57;;;4.17;;
4646;SDS011;2336;47.822;7.564;2023-06-14T13:17:38;6.50;;;4.30;;
4646;SDS011;2336;47.822;7.564;2023-06-14T13:20:05;4.63;;;4.40;;
4646;SDS011;2336;47.822;7.564;2023-06-14T13:22:33;4.43;;;4.17;;
4646;SDS011;2336;47.822;7.564;2023-06-14T13:24:59;4.30;;;4.20;;
4646;SDS011;2336;47.822;7.564;2023-06-14T13:27:26;4.00;;;3.90;;
4646;SDS011;2336;47.822;7.564;2023-06-14T13:29:53;4.40;;;4.00;;
4646;SDS011;2336;47.822;7.564;2023-06-14T13:32:20;5.47;;;4.70;;
4646;SDS011;2336;47.822;7.564;2023-06-14T13:34:49;4.50;;;4.20;;
4646;SDS011;2336;47.822;7.564;2023-06-14T13:37:16;5.00;;;4.73;;
4646;SDS011;2336;47.822;7.564;2023-06-14T13:39:42;5.20;;;4.80;;
4646;SDS011;2336;47.822;7.564;2023-06-14T13:42:09;5.10;;;4.60;;
4646;SDS011;2336;47.822;7.564;2023-06-14T13:44:36;5.03;;;4.07;;
4646;SDS011;2336;47.822;7.564;2023-06-14T13:47:03;4.13;;;3.93;;
4646;SDS011;2336;47.822;7.564;2023-06-14T13:49:30;6.07;;;4.47;;
4646;SDS011;2336;47.822;7.564;2023-06-14T13:52:01;13.43;;;4.53;;
4646;SDS011;2336;47.822;7.564;2023-06-14T13:54:28;5.70;;;4.90;;
4646;SDS011;2336;47.822;7.564;2023-06-14T13:56:55;4.87;;;4.43;;
4646;SDS011;2336;47.822;7.564;2023-06-14T13:59:22;5.43;;;4.10;;
4646;SDS011;2336;47.822;7.564;2023-06-14T14:01:49;5.20;;;4.70;;
4646;SDS011;2336;47.822;7.564;2023-06-14T14:04:16;8.10;;;4.27;;
4646;SDS011;2336;47.822;7.564;2023-06-14T14:06:43;5.70;;;4.50;;
4646;SDS011;2336;47.822;7.564;2023-06-14T14:09:11;4.47;;;4.00;;
4646;SDS011;2336;47.822;7.564;2023-06-14T14:11:38;7.20;;;5.00;;
4646;SDS011;2336;47.822;7.564;2023-06-14T14:14:07;4.90;;;4.20;;
4646;SDS011;2336;47.822;7.564;2023-06-14T14:16:35;4.73;;;4.43;;
4646;SDS011;2336;47.822;7.564;2023-06-14T14:19:02;5.30;;;4.63;;
4646;SDS011;2336;47.822;7.564;2023-06-14T14:21:28;4.30;;;4.10;;
4646;SDS011;2336;47.822;7.564;2023-06-14T14:23:55;5.03;;;4.57;;
4646;SDS011;2336;47.822;7.564;2023-06-14T14:26:23;4.73;;;4.10;;
4646;SDS011;2336;47.822;7.564;2023-06-14T14:28:50;4.83;;;4.43;;
4646;SDS011;2336;47.822;7.564;2023-06-14T14:31:17;5.10;;;4.57;;
4646;SDS011;2336;47.822;7.564;2023-06-14T14:33:44;4.93;;;4.30;;
4646;SDS011;2336;47.822;7.564;2023-06-14T14:36:10;4.47;;;4.17;;
4646;SDS011;2336;47.822;7.564;2023-06-14T14:38:38;5.83;;;4.43;;
4646;SDS011;2336;47.822;7.564;2023-06-14T14:41:05;5.10;;;4.70;;
4646;SDS011;2336;47.822;7.564;2023-06-14T14:43:33;4.57;;;4.20;;
4646;SDS011;2336;47.822;7.564;2023-06-14T14:46:00;5.10;;;3.97;;
4646;SDS011;2336;47.822;7.564;2023-06-14T14:48:26;6.93;;;4.77;;
4646;SDS011;2336;47.822;7.564;2023-06-14T14:50:53;4.77;;;4.47;;
4646;SDS011;2336;47.822;7.564;2023-06-14T14:53:20;4.47;;;4.20;;
4646;SDS011;2336;47.822;7.564;2023-06-14T14:55:46;8.73;;;4.80;;
4646;SDS011;2336;47.822;7.564;2023-06-14T14:58:15;5.00;;;4.53;;
4646;SDS011;2336;47.822;7.564;2023-06-14T15:00:44;5.23;;;4.67;;
4646;SDS011;2336;47.822;7.564;2023-06-14T15:03:11;8.40;;;4.60;;
4646;SDS011;2336;47.822;7.564;2023-06-14T15:05:38;6.83;;;5.33;;
4646;SDS011;2336;47.822;7.564;2023-06-14T15:08:05;6.40;;;4.47;;
4646;SDS011;2336;47.822;7.564;2023-06-14T15:10:36;8.10;;;4.70;;
4646;SDS011;2336;47.822;7.564;2023-06-14T15:13:05;5.87;;;4.50;;
4646;SDS011;2336;47.822;7.564;2023-06-14T15:15:32;8.30;;;4.30;;
4646;SDS011;2336;47.822;7.564;2023-06-14T15:18:00;4.50;;;4.20;;
4646;SDS011;2336;47.822;7.564;2023-06-14T15:20:27;5.23;;;4.73;;
4646;SDS011;2336;47.822;7.564;2023-06-14T15:22:54;5.30;;;4.80;;